sensor_id;sensor_type;location;lat;lon;timestamp;pressure;altitude;pressure_sealevel;temperature;humidity
18396;BME280;76377;45.194;5.734;2024-02-26T00:00:40;97385.16;;;10.74;68.70
18396;BME280;76377;45.194;5.734;2024-02-26T00:03:08;97391.50;;;10.71;69.39
18396;BME280;76377;45.194;5.734;2024-02-26T00:05:35;97384.44;;;10.63;70.52
18396;BME280;76377;45.194;5.734;2024-02-26T00:08:05;97382.88;;;10.62;70.75
18396;BME280;76377;45.194;5.734;2024-02-26T00:10:32;97393.94;;;10.62;71.04
18396;BME280;76377;45.194;5.734;2024-02-26T00:12:59;97389.28;;;10.52;72.02
18396;BME280;76377;45.194;5.734;2024-02-26T00:15:26;97384.53;;;10.53;72.70
18396;BME280;76377;45.194;5.734;2024-02-26T00:17:53;97404.28;;;10.51;73.00
18396;BME280;76377;45.194;5.734;2024-02-26T00:20:22;97388.56;;;10.41;74.09
18396;BME280;76377;45.194;5.734;2024-02-26T00:22:49;97373.56;;;10.42;75.11
18396;BME280;76377;45.194;5.734;2024-02-26T00:25:16;97379.47;;;10.37;74.80
18396;BME280;76377;45.194;5.734;2024-02-26T00:27:43;97382.25;;;10.37;73.85
18396;BME280;76377;45.194;5.734;2024-02-26T00:30:10;97386.56;;;10.38;73.99
18396;BME280;76377;45.194;5.734;2024-02-26T00:32:37;97376.72;;;10.37;74.91
18396;BME280;76377;45.194;5.734;2024-02-26T00:35:05;97384.63;;;10.31;75.10
18396;BME280;76377;45.194;5.734;2024-02-26T00:37:34;97382.66;;;10.32;75.42
18396;BME280;76377;45.194;5.734;2024-02-26T00:40:01;97383.06;;;10.30;74.88
18396;BME280;76377;45.194;5.734;2024-02-26T00:42:28;97385.38;;;10.39;75.22
18396;BME280;76377;45.194;5.734;2024-02-26T00:44:56;97380.72;;;10.29;76.14
18396;BME280;76377;45.194;5.734;2024-02-26T00:47:23;97379.91;;;10.32;75.42
18396;BME280;76377;45.194;5.734;2024-02-26T00:49:50;97379.88;;;10.35;76.21
18396;BME280;76377;45.194;5.734;2024-02-26T00:52:17;97372.03;;;10.27;76.39
18396;BME280;76377;45.194;5.734;2024-02-26T00:54:45;97364.97;;;10.19;77.90
18396;BME280;76377;45.194;5.734;2024-02-26T00:57:12;97357.47;;;10.19;77.09
18396;BME280;76377;45.194;5.734;2024-02-26T00:59:39;97356.72;;;10.11;76.65
18396;BME280;76377;45.194;5.734;2024-02-26T01:02:06;97358.72;;;10.07;78.45
18396;BME280;76377;45.194;5.734;2024-02-26T01:04:33;97352.41;;;10.10;77.53
18396;BME280;76377;45.194;5.734;2024-02-26T01:07:00;97354.78;;;10.08;75.88
18396;BME280;76377;45.194;5.734;2024-02-26T01:09:28;97350.78;;;10.20;74.60
18396;BME280;76377;45.194;5.734;2024-02-26T01:11:58;97344.06;;;10.21;72.80
18396;BME280;76377;45.194;5.734;2024-02-26T01:14:25;97349.59;;;10.18;72.84
18396;BME280;76377;45.194;5.734;2024-02-26T01:16:52;97348.00;;;10.24;72.12
18396;BME280;76377;45.194;5.734;2024-02-26T01:19:19;97331.84;;;10.19;72.80
18396;BME280;76377;45.194;5.734;2024-02-26T01:21:46;97343.66;;;10.26;72.54
18396;BME280;76377;45.194;5.734;2024-02-26T01:24:13;97337.34;;;10.22;73.27
18396;BME280;76377;45.194;5.734;2024-02-26T01:26:41;97335.78;;;10.18;74.82
18396;BME280;76377;45.194;5.734;2024-02-26T01:29:09;97328.69;;;10.20;74.15
18396;BME280;76377;45.194;5.734;2024-02-26T01:31:36;97332.63;;;10.23;74.31
18396;BME280;76377;45.194;5.734;2024-02-26T01:34:03;97331.44;;;10.17;75.69
18396;BME280;76377;45.194;5.734;2024-02-26T01:36:30;97346.88;;;10.10;77.45
18396;BME280;76377;45.194;5.734;2024-02-26T01:38:57;97338.22;;;10.08;79.56
18396;BME280;76377;45.194;5.734;2024-02-26T01:41:24;97319.69;;;10.05;78.22
18396;BME280;76377;45.194;5.734;2024-02-26T01:43:51;97327.69;;;9.82;79.45
18396;BME280;76377;45.194;5.734;2024-02-26T01:46:20;97336.81;;;9.65;79.93
18396;BME280;76377;45.194;5.734;2024-02-26T01:48:47;97326.59;;;9.62;79.28
18396;BME280;76377;45.194;5.734;2024-02-26T01:51:16;97328.19;;;9.56;80.38
18396;BME280;76377;45.194;5.734;2024-02-26T01:53:44;97327.44;;;9.52;82.52
18396;BME280;76377;45.194;5.734;2024-02-26T01:56:11;97326.22;;;9.56;80.08
18396;BME280;76377;45.194;5.734;2024-02-26T01:58:39;97325.78;;;9.65;79.54
18396;BME280;76377;45.194;5.734;2024-02-26T02:01:06;97319.50;;;9.61;79.84
18396;BME280;76377;45.194;5.734;2024-02-26T02:03:36;97325.84;;;9.51;79.70
18396;BME280;76377;45.194;5.734;2024-02-26T02:06:04;97313.63;;;9.52;80.84
18396;BME280;76377;45.194;5.734;2024-02-26T02:08:32;97303.00;;;9.54;80.93
18396;BME280;76377;45.194;5.734;2024-02-26T02:11:00;97312.44;;;9.56;80.99
18396;BME280;76377;45.194;5.734;2024-02-26T02:13:27;97303.34;;;9.63;80.74
18396;BME280;76377;45.194;5.734;2024-02-26T02:15:54;97314.00;;;9.57;80.66
18396;BME280;76377;45.194;5.734;2024-02-26T02:18:21;97294.69;;;9.61;79.99
18396;BME280;76377;45.194;5.734;2024-02-26T02:20:50;97293.06;;;9.67;78.97
18396;BME280;76377;45.194;5.734;2024-02-26T02:23:17;97310.81;;;9.66;79.38
18396;BME280;76377;45.194;5.734;2024-02-26T02:25:44;97295.84;;;9.67;77.91
18396;BME280;76377;45.194;5.734;2024-02-26T02:28:11;97297.41;;;9.68;77.89
18396;BME280;76377;45.194;5.734;2024-02-26T02:30:39;97309.19;;;9.72;76.63
18396;BME280;76377;45.194;5.734;2024-02-26T02:33:06;97304.47;;;9.72;76.29
18396;BME280;76377;45.194;5.734;2024-02-26T02:35:33;97304.84;;;9.78;74.87
18396;BME280;76377;45.194;5.734;2024-02-26T02:38:02;97294.19;;;9.80;76.11
18396;BME280;76377;45.194;5.734;2024-02-26T02:40:29;97289.81;;;9.86;74.94
18396;BME280;76377;45.194;5.734;2024-02-26T02:42:56;97273.63;;;9.88;75.25
18396;BME280;76377;45.194;5.734;2024-02-26T02:45:24;97261.03;;;9.91;75.87
18396;BME280;76377;45.194;5.734;2024-02-26T02:47:51;97261.03;;;9.91;74.72
18396;BME280;76377;45.194;5.734;2024-02-26T02:50:18;97262.56;;;9.95;74.34
18396;BME280;76377;45.194;5.734;2024-02-26T02:52:45;97264.97;;;9.93;76.00
18396;BME280;76377;45.194;5.734;2024-02-26T02:55:15;97276.81;;;9.90;75.03
18396;BME280;76377;45.194;5.734;2024-02-26T02:57:42;97275.94;;;10.00;76.75
18396;BME280;76377;45.194;5.734;2024-02-26T03:00:11;97272.03;;;9.94;79.27
18396;BME280;76377;45.194;5.734;2024-02-26T03:02:38;97272.09;;;9.80;79.92
18396;BME280;76377;45.194;5.734;2024-02-26T03:05:06;97268.91;;;9.85;78.96
18396;BME280;76377;45.194;5.734;2024-02-26T03:07:33;97268.53;;;9.83;82.42
18396;BME280;76377;45.194;5.734;2024-02-26T03:10:00;97267.50;;;9.59;84.11
18396;BME280;76377;45.194;5.734;2024-02-26T03:12:29;97277.81;;;9.44;85.07
18396;BME280;76377;45.194;5.734;2024-02-26T03:14:57;97258.13;;;9.39;87.23
18396;BME280;76377;45.194;5.734;2024-02-26T03:17:26;97234.53;;;9.27;85.78
18396;BME280;76377;45.194;5.734;2024-02-26T03:19:53;97225.78;;;9.46;83.09
18396;BME280;76377;45.194;5.734;2024-02-26T03:22:20;97227.41;;;9.40;84.15
18396;BME280;76377;45.194;5.734;2024-02-26T03:24:48;97247.13;;;9.28;86.98
18396;BME280;76377;45.194;5.734;2024-02-26T03:27:15;97234.56;;;9.20;87.70
18396;BME280;76377;45.194;5.734;2024-02-26T03:29:43;97247.19;;;9.14;88.14
18396;BME280;76377;45.194;5.734;2024-02-26T03:32:10;97251.94;;;9.10;88.05
18396;BME280;76377;45.194;5.734;2024-02-26T03:34:37;97249.16;;;9.13;87.58
18396;BME280;76377;45.194;5.734;2024-02-26T03:37:05;97243.22;;;9.22;86.21
18396;BME280;76377;45.194;5.734;2024-02-26T03:39:35;97238.09;;;9.21;87.08
18396;BME280;76377;45.194;5.734;2024-02-26T03:42:02;97246.03;;;9.04;89.30
18396;BME280;76377;45.194;5.734;2024-02-26T03:44:29;97237.75;;;9.08;89.34
18396;BME280;76377;45.194;5.734;2024-02-26T03:46:57;97234.66;;;8.99;90.12
18396;BME280;76377;45.194;5.734;2024-02-26T03:49:24;97228.75;;;8.93;90.77
18396;BME280;76377;45.194;5.734;2024-02-26T03:51:51;97236.25;;;8.93;91.45
18396;BME280;76377;45.194;5.734;2024-02-26T03:54:18;97239.31;;;9.12;85.92
18396;BME280;76377;45.194;5.734;2024-02-26T03:56:45;97247.09;;;9.35;81.25
18396;BME280;76377;45.194;5.734;2024-02-26T03:59:12;97232.13;;;9.33;85.48
18396;BME280;76377;45.194;5.734;2024-02-26T04:01:45;97210.50;;;9.28;88.17
18396;BME280;76377;45.194;5.734;2024-02-26T04:04:13;97211.34;;;9.14;89.49
18396;BME280;76377;45.194;5.734;2024-02-26T04:06:44;97223.50;;;9.27;89.54
18396;BME280;76377;45.194;5.734;2024-02-26T04:09:11;97228.25;;;9.23;90.02
18396;BME280;76377;45.194;5.734;2024-02-26T04:11:38;97228.69;;;9.11;92.02
18396;BME280;76377;45.194;5.734;2024-02-26T04:14:05;97222.06;;;8.98;92.69
18396;BME280;76377;45.194;5.734;2024-02-26T04:16:34;97234.22;;;9.04;91.50
18396;BME280;76377;45.194;5.734;2024-02-26T04:19:01;97238.19;;;8.96;92.37
18396;BME280;76377;45.194;5.734;2024-02-26T04:21:29;97211.44;;;8.93;92.30
18396;BME280;76377;45.194;5.734;2024-02-26T04:23:56;97201.59;;;8.95;91.94
18396;BME280;76377;45.194;5.734;2024-02-26T04:26:27;97213.38;;;8.99;89.83
18396;BME280;76377;45.194;5.734;2024-02-26T04:28:54;97222.81;;;9.05;88.83
18396;BME280;76377;45.194;5.734;2024-02-26T04:31:21;97214.13;;;9.10;88.08
18396;BME280;76377;45.194;5.734;2024-02-26T04:33:48;97221.63;;;9.06;88.61
18396;BME280;76377;45.194;5.734;2024-02-26T04:36:15;97215.66;;;9.22;85.08
18396;BME280;76377;45.194;5.734;2024-02-26T04:38:44;97208.53;;;9.25;84.81
18396;BME280;76377;45.194;5.734;2024-02-26T04:41:11;97185.72;;;9.24;85.32
18396;BME280;76377;45.194;5.734;2024-02-26T04:43:38;97191.22;;;9.24;86.94
18396;BME280;76377;45.194;5.734;2024-02-26T04:46:07;97215.25;;;9.24;87.95
18396;BME280;76377;45.194;5.734;2024-02-26T04:48:34;97245.63;;;9.13;89.86
18396;BME280;76377;45.194;5.734;2024-02-26T04:51:02;97235.38;;;9.10;89.56
18396;BME280;76377;45.194;5.734;2024-02-26T04:53:29;97233.81;;;9.09;90.21
18396;BME280;76377;45.194;5.734;2024-02-26T04:55:58;97227.16;;;9.03;90.94
18396;BME280;76377;45.194;5.734;2024-02-26T04:58:25;97248.84;;;8.94;91.45
18396;BME280;76377;45.194;5.734;2024-02-26T05:00:52;97233.09;;;8.91;91.83
18396;BME280;76377;45.194;5.734;2024-02-26T05:03:19;97228.25;;;9.23;83.59
18396;BME280;76377;45.194;5.734;2024-02-26T05:05:48;97228.72;;;9.07;90.09
18396;BME280;76377;45.194;5.734;2024-02-26T05:08:15;97237.78;;;9.04;91.45
18396;BME280;76377;45.194;5.734;2024-02-26T05:10:42;97238.59;;;8.98;93.08
18396;BME280;76377;45.194;5.734;2024-02-26T05:13:10;97243.28;;;9.04;93.06
18396;BME280;76377;45.194;5.734;2024-02-26T05:15:37;97244.88;;;8.98;93.76
18396;BME280;76377;45.194;5.734;2024-02-26T05:18:05;97251.22;;;8.88;94.29
18396;BME280;76377;45.194;5.734;2024-02-26T05:20:33;97246.47;;;8.81;95.10
18396;BME280;76377;45.194;5.734;2024-02-26T05:23:01;97255.16;;;8.76;95.22
18396;BME280;76377;45.194;5.734;2024-02-26T05:25:29;97230.75;;;8.78;94.50
18396;BME280;76377;45.194;5.734;2024-02-26T05:27:56;97226.41;;;8.77;94.71
18396;BME280;76377;45.194;5.734;2024-02-26T05:30:24;97237.44;;;8.77;95.81
18396;BME280;76377;45.194;5.734;2024-02-26T05:32:55;97239.78;;;8.82;94.93
18396;BME280;76377;45.194;5.734;2024-02-26T05:35:22;97235.88;;;8.76;94.79
18396;BME280;76377;45.194;5.734;2024-02-26T05:37:49;97243.34;;;8.76;96.33
18396;BME280;76377;45.194;5.734;2024-02-26T05:40:17;97241.78;;;8.64;97.43
18396;BME280;76377;45.194;5.734;2024-02-26T05:42:44;97253.63;;;8.47;98.77
18396;BME280;76377;45.194;5.734;2024-02-26T05:45:11;97246.53;;;8.57;98.81
18396;BME280;76377;45.194;5.734;2024-02-26T05:47:39;97239.44;;;8.52;99.35
18396;BME280;76377;45.194;5.734;2024-02-26T05:50:09;97246.94;;;8.55;100.00
18396;BME280;76377;45.194;5.734;2024-02-26T05:52:36;97245.34;;;8.61;99.06
18396;BME280;76377;45.194;5.734;2024-02-26T05:55:05;97240.22;;;8.60;98.35
18396;BME280;76377;45.194;5.734;2024-02-26T05:57:32;97239.44;;;8.56;99.35
18396;BME280;76377;45.194;5.734;2024-02-26T05:59:59;97258.34;;;8.50;99.94
18396;BME280;76377;45.194;5.734;2024-02-26T06:02:37;97255.56;;;8.57;100.00
18396;BME280;76377;45.194;5.734;2024-02-26T06:05:06;97265.41;;;8.58;100.00
18396;BME280;76377;45.194;5.734;2024-02-26T06:07:34;97255.19;;;8.59;100.00
18396;BME280;76377;45.194;5.734;2024-02-26T06:10:01;97263.84;;;8.57;100.00
18396;BME280;76377;45.194;5.734;2024-02-26T06:12:30;97261.47;;;8.59;100.00
18396;BME280;76377;45.194;5.734;2024-02-26T06:14:58;97265.41;;;8.58;100.00
18396;BME280;76377;45.194;5.734;2024-02-26T06:17:26;97270.91;;;8.58;100.00
18396;BME280;76377;45.194;5.734;2024-02-26T06:19:54;97279.56;;;8.67;100.00
18396;BME280;76377;45.194;5.734;2024-02-26T06:22:22;97275.63;;;8.61;100.00
18396;BME280;76377;45.194;5.734;2024-02-26T06:24:49;97271.72;;;8.59;100.00
18396;BME280;76377;45.194;5.734;2024-02-26T06:27:17;97270.91;;;8.58;100.00
18396;BME280;76377;45.194;5.734;2024-02-26T06:29:44;97276.03;;;8.60;100.00
18396;BME280;76377;45.194;5.734;2024-02-26T06:32:11;97273.28;;;8.63;100.00
18396;BME280;76377;45.194;5.734;2024-02-26T06:34:38;97261.06;;;8.71;100.00
18396;BME280;76377;45.194;5.734;2024-02-26T06:37:07;97263.81;;;8.64;100.00
18396;BME280;76377;45.194;5.734;2024-02-26T06:39:35;97254.38;;;8.62;100.00
18396;BME280;76377;45.194;5.734;2024-02-26T06:42:03;97242.19;;;8.59;100.00
18396;BME280;76377;45.194;5.734;2024-02-26T06:44:30;97235.91;;;8.62;100.00
18396;BME280;76377;45.194;5.734;2024-02-26T06:46:58;97247.69;;;8.66;100.00
18396;BME280;76377;45.194;5.734;2024-02-26T06:49:25;97250.47;;;8.59;100.00
18396;BME280;76377;45.194;5.734;2024-02-26T06:51:52;97244.16;;;8.62;100.00
18396;BME280;76377;45.194;5.734;2024-02-26T06:54:20;97243.75;;;8.67;100.00
18396;BME280;76377;45.194;5.734;2024-02-26T06:56:48;97237.44;;;8.70;100.00
18396;BME280;76377;45.194;5.734;2024-02-26T06:59:15;97225.25;;;8.68;100.00
18396;BME280;76377;45.194;5.734;2024-02-26T07:01:42;97238.66;;;8.62;100.00
18396;BME280;76377;45.194;5.734;2024-02-26T07:04:09;97238.22;;;8.71;100.00
18396;BME280;76377;45.194;5.734;2024-02-26T07:06:37;97229.97;;;8.67;100.00
18396;BME280;76377;45.194;5.734;2024-02-26T07:09:04;97221.34;;;8.65;100.00
18396;BME280;76377;45.194;5.734;2024-02-26T07:11:31;97230.78;;;8.68;99.04
18396;BME280;76377;45.194;5.734;2024-02-26T07:13:59;97225.25;;;8.68;99.80
18396;BME280;76377;45.194;5.734;2024-02-26T07:16:27;97225.25;;;8.68;100.00
18396;BME280;76377;45.194;5.734;2024-02-26T07:18:54;97224.47;;;8.67;100.00
18396;BME280;76377;45.194;5.734;2024-02-26T07:21:21;97215.44;;;8.63;100.00
18396;BME280;76377;45.194;5.734;2024-02-26T07:23:49;97222.13;;;8.62;100.00
18396;BME280;76377;45.194;5.734;2024-02-26T07:26:15;97229.59;;;8.65;100.00
18396;BME280;76377;45.194;5.734;2024-02-26T07:28:44;97241.75;;;8.82;100.00
18396;BME280;76377;45.194;5.734;2024-02-26T07:31:12;97236.28;;;8.71;100.00
18396;BME280;76377;45.194;5.734;2024-02-26T07:33:39;97247.28;;;8.71;100.00
18396;BME280;76377;45.194;5.734;2024-02-26T07:36:06;97246.47;;;8.81;100.00
18396;BME280;76377;45.194;5.734;2024-02-26T07:38:34;97255.16;;;8.76;99.58
18396;BME280;76377;45.194;5.734;2024-02-26T07:41:01;97255.16;;;8.76;99.35
18396;BME280;76377;45.194;5.734;2024-02-26T07:43:29;97250.44;;;8.88;98.69
18396;BME280;76377;45.194;5.734;2024-02-26T07:45:56;97252.78;;;8.93;97.86
18396;BME280;76377;45.194;5.734;2024-02-26T07:48:25;97255.09;;;9.05;96.48
18396;BME280;76377;45.194;5.734;2024-02-26T07:50:52;97259.00;;;9.18;95.86
18396;BME280;76377;45.194;5.734;2024-02-26T07:53:19;97257.34;;;9.31;92.77
18396;BME280;76377;45.194;5.734;2024-02-26T07:55:46;97260.53;;;9.23;92.63
18396;BME280;76377;45.194;5.734;2024-02-26T07:58:14;97270.75;;;9.29;91.65
18396;BME280;76377;45.194;5.734;2024-02-26T08:00:41;97262.91;;;9.21;93.61
18396;BME280;76377;45.194;5.734;2024-02-26T08:03:08;97268.00;;;9.26;93.31
18396;BME280;76377;45.194;5.734;2024-02-26T08:05:36;97274.69;;;9.28;92.85
18396;BME280;76377;45.194;5.734;2024-02-26T08:08:06;97275.50;;;9.25;92.75
18396;BME280;76377;45.194;5.734;2024-02-26T08:10:33;97259.78;;;9.15;94.47
18396;BME280;76377;45.194;5.734;2024-02-26T08:13:00;97246.41;;;9.13;95.47
18396;BME280;76377;45.194;5.734;2024-02-26T08:15:31;97257.41;;;9.17;94.60
18396;BME280;76377;45.194;5.734;2024-02-26T08:18:00;97260.50;;;9.33;94.54
18396;BME280;76377;45.194;5.734;2024-02-26T08:20:28;97265.19;;;9.51;93.90
18396;BME280;76377;45.194;5.734;2024-02-26T08:22:57;97262.88;;;9.31;93.48
18396;BME280;76377;45.194;5.734;2024-02-26T08:25:24;97258.53;;;9.37;94.11
18396;BME280;76377;45.194;5.734;2024-02-26T08:27:52;97258.91;;;9.36;94.05
18396;BME280;76377;45.194;5.734;2024-02-26T08:30:19;97268.00;;;9.29;94.55
18396;BME280;76377;45.194;5.734;2024-02-26T08:32:47;97266.09;;;9.08;96.16
18396;BME280;76377;45.194;5.734;2024-02-26T08:35:15;97269.25;;;9.07;96.21
18396;BME280;76377;45.194;5.734;2024-02-26T08:37:44;97262.56;;;9.04;96.38
18396;BME280;76377;45.194;5.734;2024-02-26T08:40:13;97270.06;;;9.00;97.70
18396;BME280;76377;45.194;5.734;2024-02-26T08:42:40;97269.66;;;9.09;96.87
18396;BME280;76377;45.194;5.734;2024-02-26T08:45:08;97266.88;;;9.12;96.72
18396;BME280;76377;45.194;5.734;2024-02-26T08:47:35;97273.94;;;9.21;94.81
18396;BME280;76377;45.194;5.734;2024-02-26T08:50:02;97267.59;;;9.34;94.31
18396;BME280;76377;45.194;5.734;2024-02-26T08:52:30;97281.72;;;9.51;93.49
18396;BME280;76377;45.194;5.734;2024-02-26T08:54:57;97277.75;;;9.59;93.13
18396;BME280;76377;45.194;5.734;2024-02-26T08:57:26;97275.41;;;9.54;92.46
18396;BME280;76377;45.194;5.734;2024-02-26T08:59:53;97268.69;;;9.58;93.07
18396;BME280;76377;45.194;5.734;2024-02-26T09:02:20;97271.84;;;9.57;91.52
18396;BME280;76377;45.194;5.734;2024-02-26T09:04:47;97270.63;;;9.65;91.50
18396;BME280;76377;45.194;5.734;2024-02-26T09:07:16;97278.78;;;9.82;90.52
18396;BME280;76377;45.194;5.734;2024-02-26T09:09:43;97273.63;;;9.92;89.38
18396;BME280;76377;45.194;5.734;2024-02-26T09:12:10;97282.69;;;9.96;89.19
18396;BME280;76377;45.194;5.734;2024-02-26T09:14:39;97283.91;;;9.84;89.03
18396;BME280;76377;45.194;5.734;2024-02-26T09:17:06;97285.50;;;9.81;90.34
18396;BME280;76377;45.194;5.734;2024-02-26T09:19:33;97287.75;;;10.04;89.55
18396;BME280;76377;45.194;5.734;2024-02-26T09:22:00;97281.34;;;10.18;89.26
18396;BME280;76377;45.194;5.734;2024-02-26T09:24:27;97287.28;;;10.17;89.70
18396;BME280;76377;45.194;5.734;2024-02-26T09:26:55;97296.66;;;10.30;89.07
18396;BME280;76377;45.194;5.734;2024-02-26T09:29:22;97301.88;;;10.21;87.77
18396;BME280;76377;45.194;5.734;2024-02-26T09:31:50;97296.25;;;10.35;86.81
18396;BME280;76377;45.194;5.734;2024-02-26T09:34:17;97300.16;;;10.37;86.67
18396;BME280;76377;45.194;5.734;2024-02-26T09:36:45;97297.78;;;10.43;84.65
18396;BME280;76377;45.194;5.734;2024-02-26T09:39:12;97296.84;;;10.60;82.41
18396;BME280;76377;45.194;5.734;2024-02-26T09:41:40;97300.47;;;10.98;82.50
18396;BME280;76377;45.194;5.734;2024-02-26T09:44:08;97300.19;;;11.23;79.42
18396;BME280;76377;45.194;5.734;2024-02-26T09:46:36;97314.34;;;11.29;79.62
18396;BME280;76377;45.194;5.734;2024-02-26T09:49:06;97296.00;;;11.46;79.29
18396;BME280;76377;45.194;5.734;2024-02-26T09:51:35;97294.25;;;11.59;76.71
18396;BME280;76377;45.194;5.734;2024-02-26T09:54:02;97304.78;;;11.37;79.77
18396;BME280;76377;45.194;5.734;2024-02-26T09:56:29;97303.69;;;11.65;79.38
18396;BME280;76377;45.194;5.734;2024-02-26T09:58:58;97299.00;;;11.92;77.38
18396;BME280;76377;45.194;5.734;2024-02-26T10:01:26;97295.47;;;12.19;75.82
18396;BME280;76377;45.194;5.734;2024-02-26T10:03:55;97300.13;;;12.52;75.15
18396;BME280;76377;45.194;5.734;2024-02-26T10:06:26;97290.84;;;12.62;75.14
18396;BME280;76377;45.194;5.734;2024-02-26T10:08:54;97301.56;;;12.60;72.85
18396;BME280;76377;45.194;5.734;2024-02-26T10:11:24;97302.06;;;12.79;71.47
18396;BME280;76377;45.194;5.734;2024-02-26T10:13:51;97305.38;;;13.17;70.58
18396;BME280;76377;45.194;5.734;2024-02-26T10:16:19;97296.88;;;12.57;73.32
18396;BME280;76377;45.194;5.734;2024-02-26T10:18:47;97295.88;;;12.44;73.15
18396;BME280;76377;45.194;5.734;2024-02-26T10:21:16;97296.88;;;12.57;71.66
18396;BME280;76377;45.194;5.734;2024-02-26T10:23:46;97283.94;;;12.94;70.89
18396;BME280;76377;45.194;5.734;2024-02-26T10:26:14;97290.34;;;13.14;70.37
18396;BME280;76377;45.194;5.734;2024-02-26T10:28:42;97298.78;;;13.31;67.32
18396;BME280;76377;45.194;5.734;2024-02-26T10:31:10;97296.09;;;13.47;67.17
18396;BME280;76377;45.194;5.734;2024-02-26T10:33:38;97280.81;;;13.15;67.22
18396;BME280;76377;45.194;5.734;2024-02-26T10:36:06;97282.34;;;13.20;66.80
18396;BME280;76377;45.194;5.734;2024-02-26T10:38:35;97282.38;;;13.16;62.14
18396;BME280;76377;45.194;5.734;2024-02-26T10:41:04;97274.31;;;13.25;63.55
18396;BME280;76377;45.194;5.734;2024-02-26T10:43:31;97284.47;;;13.32;64.72
18396;BME280;76377;45.194;5.734;2024-02-26T10:45:58;97272.91;;;13.57;63.54
18396;BME280;76377;45.194;5.734;2024-02-26T10:48:25;97277.59;;;13.60;61.57
18396;BME280;76377;45.194;5.734;2024-02-26T10:50:53;97267.03;;;13.71;60.26
18396;BME280;76377;45.194;5.734;2024-02-26T10:53:22;97265.94;;;14.05;58.95
18396;BME280;76377;45.194;5.734;2024-02-26T10:55:54;97269.78;;;14.27;58.74
18396;BME280;76377;45.194;5.734;2024-02-26T10:58:23;97270.13;;;14.13;59.68
18396;BME280;76377;45.194;5.734;2024-02-26T11:00:52;97264.31;;;13.87;61.12
18396;BME280;76377;45.194;5.734;2024-02-26T11:03:20;97254.31;;;14.10;59.25
18396;BME280;76377;45.194;5.734;2024-02-26T11:05:49;97248.50;;;13.84;56.91
18396;BME280;76377;45.194;5.734;2024-02-26T11:08:18;97257.00;;;14.30;56.00
18396;BME280;76377;45.194;5.734;2024-02-26T11:10:47;97248.63;;;14.49;55.02
18396;BME280;76377;45.194;5.734;2024-02-26T11:13:15;97247.03;;;14.32;54.41
18396;BME280;76377;45.194;5.734;2024-02-26T11:15:46;97235.72;;;14.23;53.79
18396;BME280;76377;45.194;5.734;2024-02-26T11:18:15;97241.63;;;14.41;53.86
18396;BME280;76377;45.194;5.734;2024-02-26T11:20:43;97246.63;;;14.66;51.87
18396;BME280;76377;45.194;5.734;2024-02-26T11:23:11;97247.41;;;14.67;52.28
18396;BME280;76377;45.194;5.734;2024-02-26T11:25:38;97244.47;;;14.58;52.33
18396;BME280;76377;45.194;5.734;2024-02-26T11:28:09;97234.72;;;14.66;52.16
18396;BME280;76377;45.194;5.734;2024-02-26T11:30:40;97243.41;;;14.51;51.73
18396;BME280;76377;45.194;5.734;2024-02-26T11:33:11;97228.34;;;14.16;52.97
18396;BME280;76377;45.194;5.734;2024-02-26T11:35:39;97220.25;;;14.06;53.28
18396;BME280;76377;45.194;5.734;2024-02-26T11:38:06;97223.22;;;14.15;53.93
18396;BME280;76377;45.194;5.734;2024-02-26T11:40:38;97215.41;;;14.10;53.12
18396;BME280;76377;45.194;5.734;2024-02-26T11:43:06;97228.16;;;14.07;52.36
18396;BME280;76377;45.194;5.734;2024-02-26T11:45:52;97217.69;;;13.79;53.36
18396;BME280;76377;45.194;5.734;2024-02-26T11:48:24;97218.97;;;13.74;52.96
18396;BME280;76377;45.194;5.734;2024-02-26T11:50:53;97218.97;;;13.74;52.92
18396;BME280;76377;45.194;5.734;2024-02-26T11:53:21;97218.13;;;13.77;53.28
18396;BME280;76377;45.194;5.734;2024-02-26T11:56:12;97214.94;;;13.95;52.52
18396;BME280;76377;45.194;5.734;2024-02-26T11:58:39;97209.47;;;13.92;52.05
18396;BME280;76377;45.194;5.734;2024-02-26T12:01:39;97213.44;;;13.90;52.98
18396;BME280;76377;45.194;5.734;2024-02-26T12:04:12;97204.44;;;14.03;52.53
18396;BME280;76377;45.194;5.734;2024-02-26T12:06:47;97210.84;;;14.00;52.50
18396;BME280;76377;45.194;5.734;2024-02-26T12:09:33;97216.50;;;13.96;51.38
18396;BME280;76377;45.194;5.734;2024-02-26T12:12:01;97202.03;;;14.05;51.59
18396;BME280;76377;45.194;5.734;2024-02-26T12:14:29;97197.00;;;14.16;52.46
18396;BME280;76377;45.194;5.734;2024-02-26T12:16:56;97192.31;;;14.13;51.78
18396;BME280;76377;45.194;5.734;2024-02-26T12:19:25;97188.75;;;14.29;51.53
18396;BME280;76377;45.194;5.734;2024-02-26T12:21:54;97187.44;;;14.17;51.72
18396;BME280;76377;45.194;5.734;2024-02-26T12:24:21;97178.75;;;14.31;52.04
18396;BME280;76377;45.194;5.734;2024-02-26T12:26:49;97183.28;;;14.25;51.43
18396;BME280;76377;45.194;5.734;2024-02-26T12:29:16;97176.94;;;14.25;51.54
18396;BME280;76377;45.194;5.734;2024-02-26T12:31:43;97175.28;;;14.27;51.63
18396;BME280;76377;45.194;5.734;2024-02-26T12:34:10;97167.09;;;14.36;50.16
18396;BME280;76377;45.194;5.734;2024-02-26T12:36:39;97163.09;;;14.37;50.30
18396;BME280;76377;45.194;5.734;2024-02-26T12:39:09;97163.53;;;14.52;50.40
18396;BME280;76377;45.194;5.734;2024-02-26T12:41:37;97163.28;;;14.63;48.56
18396;BME280;76377;45.194;5.734;2024-02-26T12:44:05;97153.63;;;14.67;48.05
18396;BME280;76377;45.194;5.734;2024-02-26T12:46:32;97162.28;;;14.86;47.93
18396;BME280;76377;45.194;5.734;2024-02-26T12:48:59;97157.69;;;14.79;47.79
18396;BME280;76377;45.194;5.734;2024-02-26T12:51:26;97152.06;;;14.95;46.97
18396;BME280;76377;45.194;5.734;2024-02-26T12:53:56;97146.31;;;15.02;46.76
18396;BME280;76377;45.194;5.734;2024-02-26T12:56:24;97144.91;;;15.10;46.92
18396;BME280;76377;45.194;5.734;2024-02-26T12:58:53;97134.22;;;15.22;47.87
18396;BME280;76377;45.194;5.734;2024-02-26T13:01:23;97149.75;;;15.48;47.58
18396;BME280;76377;45.194;5.734;2024-02-26T13:03:52;97143.28;;;15.51;46.49
18396;BME280;76377;45.194;5.734;2024-02-26T13:06:20;97139.28;;;15.52;45.26
18396;BME280;76377;45.194;5.734;2024-02-26T13:08:48;97136.38;;;15.43;45.68